Time;durP1;ratioP1;P1;durP2;ratioP2;P2;SDS_P1;SDS_P2;PMS_P1;PMS_P2;Temp;Humidity;BMP_temperature;BMP_pressure;BME280_temperature;BME280_humidity;BME280_pressure;Samples;Min_cycle;Max_cycle;Signal;HPM_P1;HPM_P2
2022/04/25 00:01:24;;;;;;;27.22;14.43;;;;;;;5.61;100.00;99871.58;1750249;82;21784;-77
2022/04/25 00:04:24;;;;;;;27.73;15.20;;;;;;;5.63;100.00;99874.98;1750182;82;21208;-79
2022/04/25 00:07:18;;;;;;;25.00;14.58;;;;;;;5.67;100.00;99864.16;1751109;82;21200;-79
2022/04/25 00:10:05;;;;;;;33.53;16.60;;;;;;;5.70;100.00;99869.30;1750302;82;21161;-79
2022/04/25 00:12:57;;;;;;;27.82;13.60;;;;;;;5.73;100.00;99861.33;1750194;82;21224;-79
2022/04/25 00:15:43;;;;;;;20.85;11.38;;;;;;;5.74;100.00;99867.09;1750595;82;21172;-78
2022/04/25 00:18:36;;;;;;;17.40;9.78;;;;;;;5.76;100.00;99870.52;1686060;85;21223;-78
2022/04/25 00:21:44;;;;;;;13.75;8.75;;;;;;;5.77;100.00;99865.44;1715055;83;21798;-79
2022/04/25 00:24:51;;;;;;;18.73;8.70;;;;;;;5.73;100.00;99862.17;1686099;85;21252;-78
2022/04/25 00:27:56;;;;;;;183.75;11.48;;;;;;;5.69;100.00;99864.84;1715035;83;21212;-78
2022/04/25 00:31:03;;;;;;;23.47;11.30;;;;;;;5.66;100.00;99864.33;1686010;85;21184;-79
2022/04/25 00:34:09;;;;;;;21.70;13.62;;;;;;;5.66;100.00;99866.53;1714325;83;21189;-78
2022/04/25 00:37:14;;;;;;;31.75;14.95;;;;;;;5.67;100.00;99875.02;1686671;84;22255;-78
2022/04/25 00:40:21;;;;;;;22.85;14.43;;;;;;;5.66;100.00;99877.90;1714251;83;21185;-78
2022/04/25 00:43:26;;;;;;;18.90;12.78;;;;;;;5.56;100.00;99883.41;1686147;84;21259;-78
2022/04/25 00:46:34;;;;;;;19.70;12.55;;;;;;;5.43;100.00;99885.13;1714553;83;21246;-79
2022/04/25 00:49:35;;;;;;;17.90;12.43;;;;;;;5.26;100.00;99880.02;1716094;83;21706;-78
2022/04/25 00:52:39;;;;;;;18.37;11.03;;;;;;;5.16;100.00;99877.88;1715742;83;21189;-78
2022/04/25 00:55:45;;;;;;;20.17;12.55;;;;;;;5.10;100.00;99887.48;1716122;83;21165;-78
2022/04/25 00:58:54;;;;;;;16.48;11.33;;;;;;;5.03;100.00;99885.52;1715735;83;21189;-78
2022/04/25 01:01:59;;;;;;;12.55;10.58;;;;;;;4.95;100.00;99886.28;1715599;83;21204;-78
2022/04/25 01:05:06;;;;;;;15.40;11.10;;;;;;;4.88;100.00;99880.59;1685895;85;21272;-79
2022/04/25 01:08:11;;;;;;;20.90;12.15;;;;;;;4.85;100.00;99884.13;1714693;83;21729;-79
2022/04/25 01:11:18;;;;;;;21.45;12.10;;;;;;;4.84;100.00;99875.62;1666551;85;21185;-79
2022/04/25 01:14:26;;;;;;;47.10;11.80;;;;;;;4.80;100.00;99869.67;1714508;83;21184;-79
2022/04/25 01:17:33;;;;;;;122.43;10.43;;;;;;;4.79;100.00;99870.66;1714906;83;21196;-79
2022/04/25 01:20:38;;;;;;;13.90;9.55;;;;;;;4.77;100.00;99867.25;1715653;83;21749;-82
2022/04/25 01:27:16;;;;;;;11.43;5.72;;;;;;;4.82;100.00;99868.16;1715483;83;21541;-83
2022/04/25 01:30:22;;;;;;;13.15;8.08;;;;;;;4.85;100.00;99864.66;1687644;85;21177;-83
2022/04/25 01:33:29;;;;;;;8.53;5.92;;;;;;;4.87;100.00;99855.86;1714500;83;21251;-83
2022/04/25 01:36:34;;;;;;;10.23;6.78;;;;;;;4.87;100.00;99853.66;1686447;84;21236;-83
2022/04/25 01:39:43;;;;;;;175.95;11.43;;;;;;;4.90;100.00;99847.09;1715789;83;21773;-83
2022/04/25 01:42:44;;;;;;;50.55;8.68;;;;;;;4.92;100.00;99841.01;1687549;84;21220;-83
2022/04/25 01:45:37;;;;;;;13.83;4.87;;;;;;;4.93;100.00;99846.77;1685501;85;21208;-83
2022/04/25 01:48:23;;;;;;;54.20;4.60;;;;;;;4.94;100.00;99841.22;1715915;83;21754;-83
2022/04/25 01:51:20;;;;;;;178.27;5.90;;;;;;;4.96;100.00;99839.70;1687408;85;21188;-83
2022/04/25 01:54:32;;;;;;;24.60;5.22;;;;;;;4.97;100.00;99843.61;1694925;83;21184;-83
2022/04/25 01:57:38;;;;;;;39.05;5.22;;;;;;;5.01;100.00;99843.66;1686787;84;21809;-83
2022/04/25 02:00:45;;;;;;;6.67;3.47;;;;;;;5.06;100.00;99836.42;1715350;83;21189;-83
2022/04/25 02:03:52;;;;;;;6.67;4.15;;;;;;;5.07;100.00;99840.83;1690051;85;21219;-83
2022/04/25 02:06:59;;;;;;;3.33;3.02;;;;;;;5.08;100.00;99846.13;1717862;83;21231;-83
2022/04/25 02:10:06;;;;;;;4.33;3.33;;;;;;;5.11;100.00;99847.66;1700652;84;21707;-83
2022/04/25 02:13:13;;;;;;;9.05;4.72;;;;;;;5.10;100.00;99854.09;1689323;84;21223;-83
2022/04/25 02:16:22;;;;;;;9.18;4.22;;;;;;;5.09;100.00;99853.25;1717420;83;21714;-83
2022/04/25 02:19:28;;;;;;;5.60;4.40;;;;;;;5.12;100.00;99853.42;1700794;84;21870;-83
2022/04/25 02:22:35;;;;;;;5.30;3.83;;;;;;;5.14;100.00;99850.08;1688887;84;21757;-83
2022/04/25 02:25:43;;;;;;;8.53;5.17;;;;;;;5.15;100.00;99846.36;1718800;83;21177;-83
2022/04/25 02:28:50;;;;;;;18.32;7.50;;;;;;;5.15;100.00;99845.00;1699615;84;21193;-83
2022/04/25 02:31:57;;;;;;;15.93;8.30;;;;;;;5.20;100.00;99839.97;1688793;84;21797;-83
2022/04/25 02:35:03;;;;;;;16.65;10.65;;;;;;;5.25;100.00;99837.64;1717416;83;21169;-83
2022/04/25 02:38:09;;;;;;;24.15;14.05;;;;;;;5.34;100.00;99839.94;1699419;84;21740;-83
2022/04/25 02:41:16;;;;;;;22.22;13.45;;;;;;;5.42;100.00;99840.03;1689904;85;21228;-83
2022/04/25 02:44:22;;;;;;;23.32;13.05;;;;;;;5.51;100.00;99837.75;1718894;83;21710;-83
2022/04/25 02:47:29;;;;;;;14.20;9.80;;;;;;;5.57;100.00;99841.19;1699911;84;21229;-82
2022/04/25 02:50:35;;;;;;;21.12;10.75;;;;;;;5.63;100.00;99848.69;1688792;85;21239;-83
2022/04/25 02:53:42;;;;;;;28.85;14.15;;;;;;;5.69;100.00;99843.65;1699597;84;21190;-83
2022/04/25 02:56:50;;;;;;;26.25;15.60;;;;;;;5.75;100.00;99852.03;1689558;85;21227;-83
2022/04/25 02:59:56;;;;;;;26.75;15.43;;;;;;;5.87;100.00;99852.62;1717465;83;21184;-83
2022/04/25 03:03:03;;;;;;;30.05;15.75;;;;;;;6.01;100.00;99858.03;1701198;82;21185;-83
2022/04/25 03:06:11;;;;;;;31.25;17.80;;;;;;;6.13;100.00;99858.98;1669674;86;21166;-83
2022/04/25 03:09:18;;;;;;;41.23;22.07;;;;;;;6.30;100.00;99862.64;1669765;86;21233;-83
2022/04/25 03:12:25;;;;;;;32.40;20.48;;;;;;;6.51;100.00;99866.86;1669721;86;21881;-83
2022/04/25 03:15:31;;;;;;;32.60;16.95;;;;;;;6.78;100.00;99866.67;1697815;84;21225;-83
2022/04/25 03:18:36;;;;;;;26.10;15.32;;;;;;;6.99;100.00;99873.04;1668524;86;21205;-83
2022/04/25 03:21:43;;;;;;;34.43;15.05;;;;;;;7.15;100.00;99869.52;1668511;86;21178;-83
2022/04/25 03:24:50;;;;;;;19.87;14.07;;;;;;;7.27;100.00;99877.73;1669131;86;21766;-83
2022/04/25 03:27:56;;;;;;;21.77;13.83;;;;;;;7.38;100.00;99876.56;1668876;86;21217;-83
2022/04/25 03:31:03;;;;;;;40.15;16.00;;;;;;;7.50;100.00;99874.39;1668589;86;21188;-82
2022/04/25 03:34:09;;;;;;;24.45;13.38;;;;;;;7.67;100.00;99874.77;1669657;86;21194;-83
2022/04/25 03:37:15;;;;;;;29.07;16.23;;;;;;;7.85;100.00;99865.91;1669428;86;21205;-82
2022/04/25 03:40:21;;;;;;;28.60;16.50;;;;;;;8.01;100.00;99866.95;1668516;86;21766;-83
2022/04/25 03:43:27;;;;;;;22.60;15.08;;;;;;;8.19;100.00;99867.62;1668668;86;21805;-83
2022/04/25 03:46:34;;;;;;;26.95;15.72;;;;;;;8.39;100.00;99858.08;1669669;86;21230;-83
2022/04/25 03:49:41;;;;;;;34.60;18.35;;;;;;;8.57;100.00;99862.48;1669865;86;21185;-83
2022/04/25 03:52:48;;;;;;;45.17;20.25;;;;;;;8.76;100.00;99866.17;1669178;86;21263;-84
2022/04/25 03:59:18;;;;;;;42.43;22.15;;;;;;;9.19;100.00;99862.58;1668615;86;21221;-83
2022/04/25 04:02:25;;;;;;;42.23;22.10;;;;;;;9.38;100.00;99860.77;1670510;84;21310;-82
2022/04/25 04:05:32;;;;;;;44.23;22.40;;;;;;;9.54;100.00;99863.05;1713605;84;21749;-83
2022/04/25 04:08:38;;;;;;;49.77;22.82;;;;;;;9.65;100.00;99863.51;1734206;81;21208;-82
2022/04/25 04:11:46;;;;;;;36.35;20.35;;;;;;;9.76;100.00;99863.59;1731397;82;21196;-83
2022/04/25 04:14:55;;;;;;;40.55;21.37;;;;;;;9.89;100.00;99861.11;1725227;82;21156;-83
2022/04/25 04:18:04;;;;;;;34.73;20.23;;;;;;;10.02;100.00;99863.23;1723829;82;21242;-83
2022/04/25 04:21:11;;;;;;;36.30;21.87;;;;;;;10.16;100.00;99865.65;1725074;83;21243;-83
2022/04/25 04:24:18;;;;;;;37.35;22.13;;;;;;;10.26;100.00;99864.93;1725120;83;21255;-83
2022/04/25 04:27:25;;;;;;;34.45;20.25;;;;;;;10.39;100.00;99875.20;1723988;83;21219;-83
2022/04/25 04:30:31;;;;;;;35.38;20.48;;;;;;;10.49;100.00;99873.93;1725029;83;21160;-83
2022/04/25 04:33:39;;;;;;;32.38;20.40;;;;;;;10.63;100.00;99871.37;1723959;82;21243;-82
2022/04/25 04:36:46;;;;;;;33.15;19.87;;;;;;;10.78;100.00;99883.20;1726066;82;22061;-82
2022/04/25 04:40:28;;;;;;;34.38;19.23;;;;;;;10.92;100.00;99887.82;1727718;82;21184;-82
2022/04/25 04:43:01;;;;;;;32.83;18.75;;;;;;;11.08;100.00;99884.55;1726930;83;21247;-82
2022/04/25 04:46:06;;;;;;;33.38;19.62;;;;;;;11.20;100.00;99888.00;1738506;81;21200;-83
2022/04/25 04:49:13;;;;;;;28.38;18.30;;;;;;;11.34;100.00;99891.75;1727126;82;21184;-83
2022/04/25 04:52:19;;;;;;;29.15;16.75;;;;;;;11.51;100.00;99890.47;1727006;83;21255;-83
2022/04/25 04:55:25;;;;;;;24.50;15.32;;;;;;;11.68;100.00;99884.77;1735051;82;21236;-83
2022/04/25 04:58:31;;;;;;;25.30;14.68;;;;;;;11.80;100.00;99890.05;1726010;83;21235;-83
2022/04/25 05:01:38;;;;;;;23.00;13.32;;;;;;;11.91;100.00;99888.22;1719329;83;21176;-83
2022/04/25 05:04:44;;;;;;;15.20;11.10;;;;;;;12.02;100.00;99886.84;1719852;83;21190;-83
2022/04/25 05:07:51;;;;;;;15.15;9.80;;;;;;;12.17;100.00;99889.51;1713547;82;21229;-83
2022/04/25 05:10:57;;;;;;;17.37;9.40;;;;;;;12.31;100.00;99898.17;1677012;84;21781;-83
2022/04/25 05:14:09;;;;;;;14.45;8.65;;;;;;;12.45;99.78;99894.50;1660800;86;21196;-83
2022/04/25 05:17:11;;;;;;;16.67;8.50;;;;;;;12.60;98.62;99899.04;1660439;85;21264;-83
2022/04/25 05:20:19;;;;;;;15.50;8.68;;;;;;;12.71;96.25;99898.51;1713503;83;21147;-84
2022/04/25 05:23:25;;;;;;;12.33;7.67;;;;;;;12.81;95.10;99894.87;1742993;82;21813;-83
2022/04/25 05:26:31;;;;;;;18.62;9.08;;;;;;;12.89;92.22;99891.11;1677562;85;21213;-83
2022/04/25 05:29:39;;;;;;;15.20;8.58;;;;;;;12.99;92.52;99893.84;1687979;85;21276;-84
2022/04/25 05:33:02;;;;;;;13.65;7.42;;;;;;;13.07;91.18;99896.08;1718665;82;21251;-82
2022/04/25 05:36:07;;;;;;;10.70;6.25;;;;;;;13.17;89.61;99896.55;1714798;83;21171;-83
2022/04/25 05:39:13;;;;;;;14.28;6.53;;;;;;;13.24;87.83;99901.61;1714309;83;21184;-83
2022/04/25 05:42:19;;;;;;;11.33;6.70;;;;;;;13.34;86.54;99895.73;1713675;83;21746;-83
2022/04/25 05:45:27;;;;;;;12.82;7.78;;;;;;;13.47;87.51;99900.77;1712051;82;21171;-83
2022/04/25 05:52:02;;;;;;;11.70;6.65;;;;;;;13.74;85.80;99898.12;1712333;83;21793;-83
2022/04/25 05:55:08;;;;;;;12.95;6.47;;;;;;;13.85;83.99;99897.50;1712931;82;21181;-83
2022/04/25 05:58:14;;;;;;;11.38;6.00;;;;;;;13.98;81.31;99903.57;1711699;82;21173;-83
2022/04/25 06:01:20;;;;;;;9.03;5.50;;;;;;;14.08;79.99;99899.03;1715573;82;21212;-83
2022/04/25 06:04:27;;;;;;;13.62;5.97;;;;;;;14.22;79.07;99893.34;1711149;83;21191;-83
2022/04/25 06:07:33;;;;;;;12.18;6.65;;;;;;;14.33;78.17;99894.61;1702254;83;22168;-83
2022/04/25 06:10:40;;;;;;;11.73;7.22;;;;;;;14.43;77.56;99895.03;1657995;86;21292;-83
2022/04/25 06:13:47;;;;;;;10.43;6.30;;;;;;;14.55;78.19;99896.13;1657535;86;21232;-83
2022/04/25 06:16:53;;;;;;;13.00;6.90;;;;;;;14.67;76.21;99893.57;1661380;83;21275;-83
2022/04/25 06:19:59;;;;;;;9.43;6.47;;;;;;;14.78;76.92;99895.70;1688190;85;21179;-83
2022/04/25 06:23:06;;;;;;;15.30;6.62;;;;;;;14.93;75.96;99897.36;1690509;83;21275;-83
2022/04/25 06:26:10;;;;;;;11.68;7.28;;;;;;;15.04;75.21;99900.29;1713015;83;21734;-83
2022/04/25 06:29:16;;;;;;;12.37;6.80;;;;;;;15.13;74.07;99900.07;1693745;83;21192;-83
2022/04/25 06:32:23;;;;;;;11.28;7.22;;;;;;;15.21;74.40;99901.22;1680807;85;21222;-83
2022/04/25 06:35:29;;;;;;;9.65;5.67;;;;;;;15.30;73.84;99899.92;1672905;84;21240;-83
2022/04/25 06:38:35;;;;;;;14.50;7.70;;;;;;;15.36;75.10;99897.67;1686731;84;21849;-83
2022/04/25 06:41:42;;;;;;;14.98;7.40;;;;;;;15.44;73.40;99891.92;1696816;83;21634;-83
2022/04/25 06:44:49;;;;;;;11.50;7.25;;;;;;;15.48;73.34;99890.42;1701991;84;21161;-83
2022/04/25 06:47:56;;;;;;;11.95;7.25;;;;;;;15.47;72.33;99887.33;1679495;85;21778;-84
2022/04/25 06:51:01;;;;;;;12.90;6.92;;;;;;;15.51;71.85;99896.02;1680948;85;21221;-84
2022/04/25 06:54:07;;;;;;;16.35;6.75;;;;;;;15.52;71.96;99891.65;1684302;83;21223;-84
2022/04/25 06:57:13;;;;;;;12.37;6.78;;;;;;;15.56;73.16;99889.31;1744963;82;21247;-83
2022/04/25 07:00:20;;;;;;;11.63;6.85;;;;;;;15.63;72.41;99888.77;1667052;83;21174;-83
2022/04/25 07:03:28;;;;;;;13.72;7.15;;;;;;;15.70;72.13;99886.83;1696485;84;21256;-84
2022/04/25 07:06:34;;;;;;;15.60;7.20;;;;;;;15.81;72.36;99888.07;1694114;84;22185;-83
2022/04/25 07:09:40;;;;;;;11.30;6.15;;;;;;;15.90;72.86;99891.39;1722352;82;21184;-83
2022/04/25 07:12:46;;;;;;;11.40;5.87;;;;;;;16.00;71.02;99888.48;1737217;82;21224;-83
2022/04/25 07:15:53;;;;;;;11.75;6.05;;;;;;;16.09;70.90;99891.80;1717097;82;21195;-84
2022/04/25 07:18:59;;;;;;;12.85;6.42;;;;;;;16.22;69.13;99886.73;1719827;82;21184;-83
2022/04/25 07:28:49;;;;;;;14.58;5.85;;;;;;;16.48;68.58;99878.25;1734381;82;21157;-84
2022/04/25 07:31:55;;;;;;;10.35;5.60;;;;;;;16.61;68.37;99882.82;1745594;82;21688;-84
2022/04/25 07:35:04;;;;;;;13.10;6.05;;;;;;;16.72;68.18;99871.59;1724721;82;21192;-84
2022/04/25 07:38:09;;;;;;;14.75;5.90;;;;;;;16.86;66.66;99873.99;1727294;82;21174;-83
2022/04/25 07:41:14;;;;;;;11.33;5.70;;;;;;;16.93;65.92;99872.53;1718113;82;21537;-84
2022/04/25 07:44:20;;;;;;;16.65;7.03;;;;;;;16.99;64.58;99874.94;1719939;82;21208;-83
2022/04/25 07:47:28;;;;;;;12.18;6.22;;;;;;;17.06;66.72;99872.39;1733077;82;21790;-83
2022/04/25 07:50:35;;;;;;;12.20;6.45;;;;;;;17.19;64.65;99875.56;1734856;82;21575;-83
2022/04/25 07:53:42;;;;;;;19.02;7.55;;;;;;;17.26;64.23;99865.80;1733596;82;21247;-83
2022/04/25 07:56:49;;;;;;;19.73;7.90;;;;;;;17.33;64.74;99876.25;1734954;82;22230;-83
2022/04/25 07:59:56;;;;;;;21.05;7.40;;;;;;;17.41;63.92;99873.19;1750444;82;21252;-83
2022/04/25 08:03:02;;;;;;;17.50;6.95;;;;;;;17.48;65.31;99869.78;1747455;82;21746;-79
2022/04/25 08:06:11;;;;;;;21.65;8.00;;;;;;;17.63;65.34;99863.84;1734122;82;21141;-80
2022/04/25 08:09:16;;;;;;;26.27;9.88;;;;;;;17.74;64.12;99857.56;1713514;82;21208;-84
2022/04/25 08:19:04;;;;;;;22.42;9.65;;;;;;;17.94;64.80;99848.13;1720375;82;21796;-82
2022/04/25 08:22:11;;;;;;;25.40;10.82;;;;;;;18.02;62.14;99839.48;1671091;84;21195;-83
2022/04/25 08:25:18;;;;;;;28.65;11.15;;;;;;;18.08;65.48;99843.55;1716041;82;21201;-84
2022/04/25 08:28:25;;;;;;;30.37;11.25;;;;;;;18.20;63.83;99836.63;1718432;82;21234;-83
2022/04/25 08:31:26;;;;;;;25.52;11.95;;;;;;;18.33;64.36;99830.88;1719525;82;21202;-84
2022/04/25 08:34:33;;;;;;;25.08;11.90;;;;;;;18.46;63.35;99831.20;1675340;85;21209;-84
2022/04/25 08:37:39;;;;;;;21.70;10.03;;;;;;;18.57;64.65;99835.06;1657555;85;21216;-84
2022/04/25 08:40:47;;;;;;;15.58;8.20;;;;;;;18.68;63.17;99832.86;1676088;85;21177;-83
2022/04/25 08:43:52;;;;;;;16.90;8.35;;;;;;;18.78;62.50;99826.73;1683957;85;21192;-84
2022/04/25 08:46:59;;;;;;;22.13;10.13;;;;;;;18.86;61.71;99830.50;1704605;84;21224;-83
2022/04/25 08:50:07;;;;;;;21.35;9.08;;;;;;;18.95;61.38;99836.52;1674714;85;21205;-84
2022/04/25 08:53:12;;;;;;;25.02;10.80;;;;;;;18.99;60.50;99830.80;1667485;85;21217;-84
2022/04/25 08:56:22;;;;;;;26.20;11.70;;;;;;;18.99;59.93;99826.09;1740737;82;21177;-84
2022/04/25 08:59:20;;;;;;;24.07;10.70;;;;;;;18.95;59.71;99819.35;1703834;84;21208;-84
2022/04/25 09:02:15;;;;;;;25.35;11.35;;;;;;;19.00;61.94;99815.85;1684978;85;21240;-84
2022/04/25 09:05:21;;;;;;;;;;;;;;;19.01;59.99;99819.79;1743491;82;21181;-84
2022/04/25 09:08:27;;;;;;;20.40;7.50;;;;;;;19.04;61.92;99812.35;1713550;82;20225;-84
2022/04/25 09:14:59;;;;;;;14.90;6.28;;;;;;;19.24;58.44;99803.62;1703588;83;21196;-84
2022/04/25 09:17:59;;;;;;;13.05;5.75;;;;;;;19.28;56.54;99795.11;1684336;83;21168;-83
2022/04/25 09:20:56;;;;;;;13.15;6.20;;;;;;;19.33;57.33;99792.99;1714462;83;21176;-83
2022/04/25 09:24:00;;;;;;;13.38;6.35;;;;;;;19.37;58.09;99785.87;1726557;83;21239;-83
2022/04/25 09:27:23;;;;;;;14.78;6.55;;;;;;;19.36;57.47;99784.19;1725801;83;21204;-84
2022/04/25 09:30:31;;;;;;;12.05;5.15;;;;;;;19.35;55.98;99781.97;1709431;83;21227;-84
2022/04/25 09:33:37;;;;;;;8.85;3.98;;;;;;;19.48;58.67;99783.61;1702314;81;21277;-84
2022/04/25 09:36:56;;;;;;;8.98;4.28;;;;;;;19.65;56.58;99779.52;1719776;81;21165;-84
2022/04/25 09:40:11;;;;;;;7.28;3.95;;;;;;;19.78;55.24;99778.38;1703542;83;21178;-85
2022/04/25 09:43:19;;;;;;;8.03;4.10;;;;;;;19.87;53.69;99776.33;1710023;82;21255;-84
2022/04/25 09:46:26;;;;;;;8.70;3.83;;;;;;;19.84;52.24;99767.65;1695339;83;21842;-84
2022/04/25 09:49:34;;;;;;;5.90;3.42;;;;;;;19.75;51.48;99769.15;1695031;84;21254;-84
2022/04/25 09:52:41;;;;;;;7.97;3.30;;;;;;;19.71;51.65;99765.19;1712338;83;21232;-84
2022/04/25 09:55:47;;;;;;;7.65;3.37;;;;;;;19.74;51.28;99766.09;1719400;83;21179;-84
2022/04/25 09:59:09;;;;;;;8.75;3.37;;;;;;;19.79;51.59;99759.23;1696121;83;21840;-84
2022/04/25 10:02:19;;;;;;;5.85;2.90;;;;;;;19.76;50.72;99749.50;1698652;83;21459;-84
2022/04/25 10:05:26;;;;;;;7.95;3.22;;;;;;;19.80;53.24;99747.88;1695235;84;21195;-80
2022/04/25 10:08:34;;;;;;;8.03;3.05;;;;;;;19.88;53.37;99755.80;1712876;83;21220;-80
2022/04/25 10:11:33;;;;;;;8.55;2.87;;;;;;;20.01;52.43;99750.48;1703263;83;21221;-80
2022/04/25 10:14:39;;;;;;;9.35;3.12;;;;;;;20.11;51.29;99746.48;1704291;82;21818;-80
2022/04/25 10:17:46;;;;;;;9.38;2.77;;;;;;;20.22;52.50;99744.70;1708410;83;21251;-80
2022/04/25 10:20:52;;;;;;;8.85;2.55;;;;;;;20.30;51.29;99744.83;1709666;84;21173;-80
2022/04/25 10:23:58;;;;;;;7.95;2.85;;;;;;;20.37;50.20;99732.46;1708847;84;22198;-80
2022/04/25 10:27:04;;;;;;;8.10;2.60;;;;;;;20.47;49.83;99732.33;1708408;82;21247;-79
2022/04/25 10:30:22;;;;;;;3.47;2.42;;;;;;;20.58;50.42;99738.34;1709895;82;21722;-79
2022/04/25 10:33:31;;;;;;;4.47;2.40;;;;;;;20.60;50.18;99738.91;1707796;84;21236;-80
2022/04/25 10:36:52;;;;;;;9.98;2.60;;;;;;;20.59;49.12;99734.46;1709300;84;21204;-80
2022/04/25 10:39:58;;;;;;;12.53;2.42;;;;;;;20.53;48.37;99729.39;1709255;84;21252;-79
2022/04/25 10:47:15;;;;;;;4.30;2.08;;;;;;;20.51;49.14;99727.95;1677036;84;21220;-80
2022/04/25 10:50:23;;;;;;;5.80;2.95;;;;;;;20.49;49.14;99725.98;1709230;84;21184;-79
2022/04/25 10:53:33;;;;;;;5.15;2.27;;;;;;;20.35;47.85;99733.80;1707824;84;21232;-79
2022/04/25 10:56:41;;;;;;;6.97;2.85;;;;;;;20.16;47.25;99734.06;1709423;84;21196;-79
2022/04/25 10:59:47;;;;;;;9.15;2.40;;;;;;;20.06;47.33;99727.52;1708193;83;21168;-79
2022/04/25 11:03:12;;;;;;;6.30;2.50;;;;;;;20.06;49.48;99724.73;1707946;83;21181;-79
2022/04/25 11:06:28;;;;;;;3.72;2.30;;;;;;;20.19;51.61;99725.79;1709618;84;21204;-79
2022/04/25 11:09:46;;;;;;;7.28;2.65;;;;;;;20.34;51.17;99716.84;1708776;84;21192;-79
2022/04/25 11:13:04;;;;;;;5.22;2.67;;;;;;;20.46;50.59;99718.95;1708208;83;21698;-79
2022/04/25 11:16:26;;;;;;;4.67;2.72;;;;;;;20.57;52.20;99718.61;1709216;82;21190;-79
2022/04/25 11:19:36;;;;;;;5.55;2.98;;;;;;;20.57;50.56;99711.66;1709641;84;21914;-79
2022/04/25 11:22:53;;;;;;;9.18;2.80;;;;;;;20.38;49.49;99713.31;1709196;84;21541;-79
2022/04/25 11:26:04;;;;;;;4.75;2.50;;;;;;;20.15;49.98;99711.56;1710174;84;21755;-79
2022/04/25 11:29:14;;;;;;;5.70;2.60;;;;;;;19.96;50.70;99704.59;1710305;84;21178;-79
2022/04/25 11:32:37;;;;;;;4.47;2.30;;;;;;;19.76;51.28;99700.06;1709876;84;21206;-79
2022/04/25 11:35:43;;;;;;;5.78;2.62;;;;;;;19.66;52.80;99696.02;1708772;84;21235;-80
2022/04/25 11:42:18;;;;;;;7.15;2.50;;;;;;;19.85;53.62;99696.63;1709904;84;21248;-84
2022/04/25 11:45:24;;;;;;;4.92;2.30;;;;;;;20.11;52.17;99701.22;1687525;82;21556;-79
2022/04/25 11:48:30;;;;;;;8.15;2.40;;;;;;;20.27;51.18;99698.13;1709638;84;21222;-84
2022/04/25 11:51:39;;;;;;;3.25;2.02;;;;;;;20.32;51.10;99703.20;1710109;84;21150;-84
2022/04/25 11:54:48;;;;;;;2.47;1.80;;;;;;;20.26;51.71;99702.00;1710165;84;21203;-84
2022/04/25 11:57:54;;;;;;;7.75;2.45;;;;;;;20.17;50.60;99696.87;1708793;82;21169;-84
2022/04/25 12:01:00;;;;;;;2.83;1.85;;;;;;;20.08;50.92;99701.72;1708672;82;21215;-84
2022/04/25 12:04:29;;;;;;;5.05;2.22;;;;;;;20.02;49.93;99692.47;1708549;84;21845;-83
2022/04/25 12:07:35;;;;;;;9.65;2.35;;;;;;;20.08;50.61;99685.06;1709639;84;21818;-84
2022/04/25 12:17:31;;;;;;;3.52;2.05;;;;;;;20.34;49.31;99672.41;1709426;84;21220;-83
2022/04/25 12:20:42;;;;;;;4.53;2.10;;;;;;;20.25;48.95;99668.39;1710016;84;21209;-84
2022/04/25 12:23:57;;;;;;;6.67;2.42;;;;;;;20.16;49.25;99671.59;1709952;84;21197;-82
2022/04/25 12:27:03;;;;;;;3.87;1.70;;;;;;;20.10;49.35;99654.58;1710008;84;21208;-84
2022/04/25 12:30:16;;;;;;;8.45;2.25;;;;;;;20.03;48.34;99658.06;1720546;82;21847;-83
2022/04/25 12:33:16;;;;;;;5.90;2.40;;;;;;;19.97;49.46;99654.08;1739045;82;21189;-84
2022/04/25 12:36:33;;;;;;;8.48;2.20;;;;;;;19.91;49.42;99651.78;1738111;82;21201;-83
2022/04/25 12:39:40;;;;;;;6.60;2.45;;;;;;;19.84;49.13;99648.33;1737979;81;21196;-83
2022/04/25 12:42:55;;;;;;;6.45;2.50;;;;;;;19.77;48.89;99644.34;1737925;81;21857;-84
2022/04/25 12:46:00;;;;;;;10.85;2.40;;;;;;;19.73;48.50;99634.01;1724708;82;21210;-83
2022/04/25 12:49:15;;;;;;;3.22;1.95;;;;;;;19.69;48.21;99634.21;1709117;84;21700;-84
2022/04/25 12:52:20;;;;;;;3.87;1.92;;;;;;;19.68;48.92;99629.77;1710308;82;21221;-83
2022/04/25 12:55:27;;;;;;;7.70;2.40;;;;;;;19.65;47.99;99628.31;1708808;83;21198;-83
2022/04/25 12:58:33;;;;;;;4.62;2.00;;;;;;;19.62;48.11;99624.69;1688693;84;21221;-83
2022/04/25 13:01:44;;;;;;;4.65;2.10;;;;;;;19.62;49.92;99621.91;1708484;84;21805;-83
2022/04/25 13:05:07;;;;;;;4.40;2.20;;;;;;;19.63;50.24;99619.42;1739063;82;21232;-84
2022/04/25 13:08:13;;;;;;;5.15;2.20;;;;;;;19.61;49.84;99618.81;1735637;82;21204;-83
2022/04/25 13:11:20;;;;;;;6.92;2.52;;;;;;;19.59;50.07;99611.27;1710254;84;21181;-83
2022/04/25 13:14:26;;;;;;;4.67;2.47;;;;;;;19.60;51.10;99605.50;1707402;83;21216;-83
2022/04/25 13:17:36;;;;;;;10.82;2.58;;;;;;;19.63;50.79;99605.00;1682806;85;21223;-84
2022/04/25 13:20:42;;;;;;;4.35;2.10;;;;;;;19.63;50.55;99599.45;1722759;82;21173;-83
2022/04/25 13:23:50;;;;;;;7.40;2.47;;;;;;;19.63;50.19;99593.91;1735358;82;21806;-83
2022/04/25 13:26:56;;;;;;;8.65;2.72;;;;;;;19.61;50.09;99594.69;1718333;83;21220;-84
2022/04/25 13:30:01;;;;;;;6.87;2.60;;;;;;;19.59;49.82;99591.86;1728791;82;21189;-84
2022/04/25 13:33:08;;;;;;;5.28;2.30;;;;;;;19.55;50.10;99592.90;1717701;83;21212;-84
2022/04/25 13:36:14;;;;;;;6.10;2.45;;;;;;;19.52;49.22;99598.11;1721817;82;21260;-84
2022/04/25 13:39:19;;;;;;;5.40;2.42;;;;;;;19.50;49.21;99589.21;1720658;82;21177;-84
2022/04/25 13:42:25;;;;;;;5.22;2.50;;;;;;;19.46;50.11;99583.32;1732228;81;21774;-84
2022/04/25 13:45:32;;;;;;;5.10;2.60;;;;;;;19.45;50.85;99586.36;1712862;82;21191;-84
2022/04/25 13:48:38;;;;;;;6.25;2.08;;;;;;;19.45;51.87;99578.88;1706595;84;21242;-84
2022/04/25 13:51:45;;;;;;;7.25;2.20;;;;;;;19.47;52.38;99573.90;1715757;83;21717;-84
2022/04/25 13:54:54;;;;;;;5.33;2.20;;;;;;;19.46;51.81;99572.23;1719912;83;21168;-84
2022/04/25 13:58:03;;;;;;;5.75;2.17;;;;;;;19.45;50.62;99573.33;1686697;84;21853;-83
2022/04/25 14:01:13;;;;;;;6.42;2.30;;;;;;;19.45;51.74;99576.65;1704225;82;21165;-84
2022/04/25 14:04:16;;;;;;;4.55;2.30;;;;;;;19.41;51.16;99567.44;1705875;84;21874;-84
2022/04/25 14:07:22;;;;;;;7.65;2.40;;;;;;;19.38;51.29;99571.25;1727798;80;21168;-84
2022/04/25 14:10:27;;;;;;;7.75;2.40;;;;;;;19.35;51.69;99562.07;1750295;82;21486;-83
2022/04/25 14:13:33;;;;;;;5.08;2.55;;;;;;;19.35;52.05;99569.00;1738032;82;21696;-83
2022/04/25 14:16:40;;;;;;;4.87;2.20;;;;;;;19.33;51.71;99575.33;1701310;82;21829;-83
2022/04/25 14:19:48;;;;;;;5.83;1.92;;;;;;;19.30;51.57;99577.23;1704247;84;21220;-83
2022/04/25 14:22:54;;;;;;;6.25;2.40;;;;;;;19.28;52.90;99570.53;1699155;83;21478;-84
2022/04/25 14:25:56;;;;;;;4.22;2.22;;;;;;;19.31;53.43;99578.91;1679120;84;21232;-84
2022/04/25 14:29:03;;;;;;;4.20;2.15;;;;;;;19.32;51.83;99569.49;1700086;84;21552;-84
2022/04/25 14:32:09;;;;;;;7.92;2.45;;;;;;;19.32;52.15;99562.56;1700019;84;21237;-85
2022/04/25 14:35:15;;;;;;;4.80;2.35;;;;;;;19.32;52.82;99569.49;1699096;84;21861;-84
2022/04/25 14:38:25;;;;;;;11.85;2.55;;;;;;;19.29;53.43;99568.08;1699566;84;21292;-84
2022/04/25 14:41:31;;;;;;;4.10;2.40;;;;;;;19.26;52.34;99567.19;1680613;84;21201;-84
2022/04/25 14:44:39;;;;;;;4.85;2.15;;;;;;;19.22;52.95;99554.91;1691899;84;21195;-84
2022/04/25 14:47:47;;;;;;;9.68;2.40;;;;;;;19.17;52.84;99549.28;1695113;84;21233;-84
2022/04/25 14:54:24;;;;;;;10.35;2.27;;;;;;;19.07;54.40;99556.88;1687602;84;21253;-84
2022/04/25 14:57:27;;;;;;;10.43;2.42;;;;;;;19.00;53.85;99558.95;1681785;85;21184;-84
2022/04/25 15:00:33;;;;;;;10.18;2.62;;;;;;;18.94;54.49;99554.42;1704541;84;21232;-84
2022/04/25 15:03:40;;;;;;;5.55;2.67;;;;;;;18.89;54.96;99558.48;1689140;83;22130;-84
2022/04/25 15:06:50;;;;;;;7.80;2.87;;;;;;;18.85;54.43;99553.14;1688534;85;22061;-84
2022/04/25 15:09:54;;;;;;;4.72;2.50;;;;;;;18.83;54.29;99553.95;1692532;83;21570;-84
2022/04/25 15:13:01;;;;;;;7.97;2.30;;;;;;;18.82;55.03;99544.80;1688539;84;21240;-84
2022/04/25 15:16:07;;;;;;;4.37;2.10;;;;;;;18.80;54.34;99545.58;1699463;83;21256;-84